Salem Township, Maine
Current Conditions -  °F | °C
As of 7:55 PM on Friday 24 Oct 2014 (Local Time) from KWVL Reporting Station
Overcast Overcast  
Wind Chill: 41°   Ceiling: 1800
Heat Index: 46°   Visibility: 10mi
Dew Point: 39°   Wind: 12mph
Humidity: 76%   Direction: 340°NNW
Pressure: 29.66"   Gusts: 17mph
Location:  44.8564°N, 70.2117°W
Report Text: KWVL 242355Z 34010G15KT 10SM OVC018 08/04 A2966 RMK AO1 10080 20080 400900080 52010
Loading
Personal Weather Stations






























Interactive Weather Map
Tropical Storm Tracking
New forecast layout! Learn more

10-Day Weather Forecast

Advertisements
Track Severe Weather on mobile